Anton, Colorado
Current Conditions -  °F | °C
As of 9:53 AM on Friday 28 Nov 2014 (Local Time) from KAKO Reporting Station
Clear Clear  
Wind Chill: 53°   Ceiling: Unl
Heat Index: 53°   Visibility: 10mi
Dew Point: 23°   Wind: 10mph
Humidity: 31%   Direction: 270°W
Pressure: 29.93"   Gusts: NA
Location:  39.74°N, 103.22°W
Report Text: KAKO 281653Z AUTO 27009KT 10SM CLR 12/M05 A2993 RMK AO2 SLP117 T01171050
Loading
Personal Weather Stations






























Interactive Weather Map New forecast layout! Learn more

10-Day Weather Forecast

Advertisements
Track Severe Weather on mobile